Flight Track Log - Related Links

Times and Time Zones

All times are in EST time to prevent confusion due to time zone crossing. See the EJA583 flight status page for this flight to view local times or setup timezone preferences in your user account.

Time Position Orientation Groundspeed Altitude Reporting Facility
EST Latitude Longitude Course Direction KTS MPH feet Rate Location/Type
Mon 09:07:08 AM 40.0022 -82.8853 88° East 145 167 1,300  Level Indianapolis Center
Mon 09:07:45 AM 40.0031 -82.8511 88° East 183 211 3,400 3,818 Climbing Indianapolis Center
Mon 09:08:03 AM 40.0039 -82.8256 88° East 198 228 4,800 3,581 Climbing Indianapolis Center
Mon 09:08:47 AM 40.0044 -82.7728 89° East 219 252 7,100 3,403 Climbing Indianapolis Center
Mon 09:09:10 AM 40.0019 -82.7325 95° East 266 306 8,600 2,710 Climbing Indianapolis Center
Mon 09:09:49 AM 40.0028 -82.6778 89° East 257 296 9,900 1,426 Climbing Indianapolis Center
Mon 09:10:51 AM 40.0011 -82.5544 91° East 330 380 11,000 2,226 Climbing Indianapolis Center
Mon 09:11:53 AM 40.0169 -82.4050 82° East 344 396 14,500 3,048 Climbing Indianapolis Center
Mon 09:12:55 AM 40.0353 -82.2839 79° East 343 395 17,300 2,323 Climbing Indianapolis Center
Mon 09:13:57 AM 40.0528 -82.1600 80° East 346 398 19,300 2,177 Climbing Indianapolis Center
Mon 09:14:59 AM 40.0703 -82.0269 80° East 366 421 21,800 2,371 Climbing Indianapolis Center
Mon 09:16:01 AM 40.0883 -81.8917 80° East 377 434 24,200 2,323 Climbing Indianapolis Center
Mon 09:17:03 AM 40.1108 -81.7275 80° East 396 456 26,600 2,129 Climbing Indianapolis Center
Mon 09:18:05 AM 40.1311 -81.5778 80° East 412 474 28,600 1,742 Climbing Indianapolis Center
Mon 09:19:07 AM 40.1503 -81.4247 81° East 419 482 30,200 1,548 Climbing Indianapolis Center
Mon 09:20:09 AM 40.1719 -81.2692 80° East 430 495 31,800 1,500 Climbing Indianapolis Center
Mon 09:21:11 AM 40.2078 -81.1142 73° East 439 505 33,300 1,403 Climbing Indianapolis Center
Mon 09:22:13 AM 40.2397 -80.9569 75° East 446 513 34,700 1,355 Climbing Indianapolis Center
Mon 09:23:15 AM 40.2783 -80.7647 75° East 461 531 36,100 1,113 Climbing Indianapolis Center
Mon 09:24:17 AM 40.3178 -80.6047 72° East 460 529 37,000 435 Climbing Indianapolis Center
Mon 09:25:19 AM 40.3578 -80.4389 72° East 473 544 37,000  Level Indianapolis Center
Mon 09:26:21 AM 40.3994 -80.2672 72° East 490 564 37,000  Level Indianapolis Center
Mon 09:27:46 AM 40.4531 -80.0311 73° East 485 558 37,000  Level Cleveland Center
Mon 09:28:48 AM 40.4958 -79.8619 72° East 490 564 37,000  Level Cleveland Center
Mon 09:29:50 AM 40.5344 -79.6933 73° East 486 559 37,000  Level Cleveland Center
Mon 09:30:52 AM 40.5814 -79.4914 73° East 483 556 37,000  Level Cleveland Center
Mon 09:31:55 AM 40.6197 -79.3225 73° East 481 554 37,000  Level Cleveland Center
Mon 09:32:57 AM 40.6589 -79.1528 73° East 485 558 37,000  Level Cleveland Center
Mon 09:33:59 AM 40.6975 -78.9833 73° East 484 557 37,000  Level Cleveland Center
Mon 09:35:01 AM 40.7344 -78.8186 73° East 485 558 37,000  Level Cleveland Center
Mon 09:36:03 AM 40.7800 -78.6142 74° East 490 564 37,000  Level Cleveland Center
Mon 09:37:05 AM 40.8178 -78.4450 74° East 491 565 37,000  Level Cleveland Center
Mon 09:38:07 AM 40.8592 -78.2608 73° East 493 567 37,000  Level Cleveland Center
Mon 09:39:09 AM 40.8933 -78.1031 74° East 494 568 37,000  Level Cleveland Center
Mon 09:40:11 AM 40.9544 -77.9092 67° East 482 555 37,000  Level Cleveland Center
Mon 09:41:13 AM 41.0208 -77.7617 59° Northeast 473 544 37,000  Level Cleveland Center
Mon 09:42:15 AM 41.0822 -77.6106 62° Northeast 471 542 37,000  Level Cleveland Center
Mon 09:43:31 AM 41.1069 -77.4022 81° East 478 550 37,000 -485 Level New York Center
Mon 09:44:31 AM 41.1283 -77.2058 82° East 473 544 35,900 -1,400 Descending New York Center
Mon 09:45:31 AM 41.1464 -77.0231 82° East 486 559 34,200 -950 Descending New York Center
Mon 09:46:31 AM 41.1644 -76.8372 83° East 499 574 34,000 -850 Descending New York Center
Mon 09:47:31 AM 41.2122 -76.6733 69° East 499 574 32,500 -1,700 Descending New York Center
Mon 09:48:31 AM 41.2700 -76.5153 64° Northeast 477 549 30,600 -1,800 Descending New York Center
Mon 09:49:31 AM 41.3219 -76.3403 68° East 464 534 28,900 -2,400 Descending New York Center
Mon 09:50:31 AM 41.2972 -76.1558 100° East 465 535 25,800 -2,750 Descending New York Center
Mon 09:51:31 AM 41.2881 -75.9867 94° East 459 528 23,400 -2,300 Descending New York Center
Mon 09:52:31 AM 41.2806 -75.8261 94° East 454 522 21,200 -2,050 Descending New York Center
Mon 09:53:31 AM 41.2714 -75.6983 95° East 440 506 19,300 -2,000 Descending New York Center
Mon 09:54:31 AM 41.2217 -75.5403 113° Southeast 421 484 17,200 -2,500 Descending New York Center
Mon 09:55:31 AM 41.1733 -75.3936 114° Southeast 403 464 14,300 -2,650 Descending New York Center
Mon 09:56:31 AM 41.1303 -75.2639 114° Southeast 395 455 11,900 -2,400 Descending New York Center
Mon 09:57:31 AM 41.0908 -75.1483 114° Southeast 361 415 9,500 -2,150 Descending New York Center
Mon 09:58:31 AM 41.0692 -75.0589 108° East 311 358 7,600 -1,700 Descending New York Center
Mon 09:59:31 AM 41.0606 -74.9539 96° East 264 304 6,100 -750 Descending New York Center
Mon 10:00:31 AM 41.0303 -74.8667 115° Southeast 257 296 6,100 -650 Level New York Center
Mon 10:01:31 AM 40.9892 -74.7900 125° Southeast 262 302 4,800 -1,000 Descending New York Center
Mon 10:02:31 AM 40.9478 -74.7133 126° Southeast 257 296 4,100 -350 Descending New York Center
Mon 10:03:31 AM 40.9125 -74.6481 126° Southeast 249 287 4,100  Level New York Center
Mon 10:04:23 AM 40.8667 -74.5667 127° Southeast 251 289 4,100 -482 Level New York TRACON
Mon 10:05:23 AM 40.8333 -74.5000 123° Southeast 245 282 3,200 -504 Descending New York TRACON
Mon 10:06:22 AM 40.8000 -74.4333 123° Southeast 243 280 3,100 -316 Descending New York TRACON
Mon 10:07:17 AM 40.7667 -74.3667 123° Southeast 212 244 2,600 -550 Descending New York TRACON
Mon 10:08:11 AM 40.7333 -74.3167 131° Southeast 199 229 2,100 -263 Descending New York TRACON
Mon 10:09:11 AM 40.7500 -74.2500 72° East 181 208 2,100 -144 Level New York TRACON
Mon 10:10:16 AM 40.7667 -74.1833 72° East 172 198 1,800 -286 Descending New York TRACON
Mon 10:11:17 AM 40.8000 -74.1500 37° Northeast 134 154 1,500 -298 Descending New York TRACON
Mon 10:12:17 AM 40.8167 -74.1167 57° Northeast 129 148 1,200 -474 Descending New York TRACON
Mon 10:13:11 AM 40.8167 -74.0667 90° East 124 143 600 -667 Descending New York TRACON
Mon 10:15:00 AM 40.8500 -74.0500 75° East  Level FlightAware Approximate
Mon 10:22:00 AM 40.8501 -74.0608 75° East  Level Estimated

Login

Don't have an account? Register now (free) for customized features, flight alerts, and more!